Time;durP1;ratioP1;P1;durP2;ratioP2;P2;SDS_P1;SDS_P2;PMS_P1;PMS_P2;Temp;Humidity;BMP_temperature;BMP_pressure;BME280_temperature;BME280_humidity;BME280_pressure;Samples;Min_cycle;Max_cycle;Signal;HPM_P1;HPM_P2
2023/07/18 00:01:44;;;;;;;21.70;17.90;;;;;;;29.16;52.85;99832.11;108014;1253;60055;-68
2023/07/18 00:04:11;;;;;;;24.30;18.70;;;;;;;29.13;53.08;99832.29;108302;1258;72967;-69
2023/07/18 00:06:41;;;;;;;21.50;18.80;;;;;;;29.09;53.44;99830.73;108049;1258;70296;-69
2023/07/18 00:09:11;;;;;;;23.20;19.70;;;;;;;29.11;53.49;99829.79;107925;1258;72591;-69
2023/07/18 00:11:39;;;;;;;21.20;18.90;;;;;;;29.09;53.39;99828.09;107965;1257;60005;-69
2023/07/18 00:14:05;;;;;;;18.70;16.70;;;;;;;28.72;54.24;99827.72;108087;1253;60201;-71
2023/07/18 00:16:32;;;;;;;25.00;18.50;;;;;;;28.40;54.75;99824.76;108103;1254;72834;-70
2023/07/18 00:18:59;;;;;;;21.40;18.90;;;;;;;28.48;54.57;99822.64;108088;1254;70369;-70
2023/07/18 00:21:27;;;;;;;19.30;16.00;;;;;;;28.30;55.09;99822.69;108082;1254;72901;-70
2023/07/18 00:23:55;;;;;;;21.30;19.10;;;;;;;28.27;55.19;99821.29;108065;1256;61847;-70
2023/07/18 00:26:24;;;;;;;26.60;20.70;;;;;;;28.27;55.30;99819.75;108023;1254;59338;-71
2023/07/18 00:28:53;;;;;;;22.30;19.60;;;;;;;28.27;55.30;99816.30;108070;1253;73117;-71
2023/07/18 00:31:21;;;;;;;25.50;21.10;;;;;;;28.56;55.00;99812.09;107971;1254;70105;-71
2023/07/18 00:33:48;;;;;;;22.20;17.80;;;;;;;28.12;56.24;99803.70;108209;1254;70843;-70
2023/07/18 00:36:15;;;;;;;24.40;19.80;;;;;;;28.08;56.46;99797.98;108035;1254;61632;-70
2023/07/18 00:38:42;;;;;;;22.90;19.70;;;;;;;28.17;56.10;99798.70;108195;1254;60544;-70
2023/07/18 00:41:11;;;;;;;24.90;18.50;;;;;;;28.59;55.05;99795.70;108183;1254;73030;-70
2023/07/18 00:43:40;;;;;;;21.00;18.50;;;;;;;28.26;55.96;99790.33;108172;1254;69575;-70
2023/07/18 00:46:06;;;;;;;24.80;17.60;;;;;;;28.28;56.01;99787.23;108151;1254;72543;-68
2023/07/18 00:48:33;;;;;;;19.00;17.00;;;;;;;28.58;54.92;99784.54;108137;1254;60592;-69
2023/07/18 00:51:04;;;;;;;28.10;19.70;;;;;;;28.33;55.08;99780.80;108273;1256;60471;-69
2023/07/18 00:53:32;;;;;;;17.90;15.90;;;;;;;28.21;55.55;99776.44;108228;1253;71372;-69
2023/07/18 00:56:02;;;;;;;21.80;19.30;;;;;;;27.91;56.13;99769.83;108022;1254;70428;-69
2023/07/18 00:58:30;;;;;;;22.60;19.50;;;;;;;27.88;56.64;99764.77;107901;1254;71506;-69
2023/07/18 01:00:59;;;;;;;21.00;17.90;;;;;;;28.01;56.64;99757.12;107950;1259;61899;-68
2023/07/18 01:03:26;;;;;;;25.70;20.10;;;;;;;28.08;56.68;99754.54;108030;1257;60000;-70
2023/07/18 01:05:53;;;;;;;22.80;19.90;;;;;;;27.76;57.48;99752.86;107959;1258;73289;-69
2023/07/18 01:08:20;;;;;;;22.70;20.10;;;;;;;27.78;57.49;99746.62;108383;1254;70536;-69
2023/07/18 01:10:47;;;;;;;23.70;20.30;;;;;;;27.78;57.61;99741.41;108110;1256;72722;-70
2023/07/18 01:13:15;;;;;;;22.90;19.70;;;;;;;27.72;57.89;99738.98;108196;1253;61679;-69
2023/07/18 01:15:43;;;;;;;24.70;20.50;;;;;;;27.56;58.34;99739.00;108244;1255;60907;-69
2023/07/18 01:18:13;;;;;;;23.90;20.20;;;;;;;27.82;57.98;99738.90;108128;1256;73725;-70
2023/07/18 01:20:44;;;;;;;23.40;20.40;;;;;;;27.91;57.84;99737.36;108199;1254;70272;-70
2023/07/18 01:23:11;;;;;;;24.70;20.50;;;;;;;27.77;58.08;99732.85;108114;1254;72861;-69
2023/07/18 01:25:38;;;;;;;23.10;19.20;;;;;;;27.60;58.69;99725.09;107983;1253;62017;-69
2023/07/18 01:28:06;;;;;;;22.30;19.60;;;;;;;27.67;58.45;99717.67;108022;1254;60427;-70
2023/07/18 01:30:33;;;;;;;29.20;20.30;;;;;;;27.78;58.08;99716.82;107953;1259;73862;-68
2023/07/18 01:33:03;;;;;;;21.80;18.40;;;;;;;27.79;57.62;99716.66;108054;1259;70378;-69
2023/07/18 01:35:30;;;;;;;23.20;19.40;;;;;;;27.83;57.25;99718.66;108145;1254;71520;-69
2023/07/18 01:37:57;;;;;;;18.60;16.70;;;;;;;28.09;56.74;99714.46;107960;1254;61998;-69
2023/07/18 01:40:24;;;;;;;24.20;20.40;;;;;;;28.17;56.02;99712.33;108170;1257;60306;-70
2023/07/18 01:42:52;;;;;;;25.00;21.10;;;;;;;28.11;56.08;99711.21;108123;1254;73755;-70
2023/07/18 01:45:24;;;;;;;21.70;17.20;;;;;;;28.02;56.66;99712.96;108006;1257;70671;-69
2023/07/18 01:47:51;;;;;;;23.90;20.30;;;;;;;28.09;56.22;99713.04;108493;1254;72686;-70
2023/07/18 01:50:19;;;;;;;22.90;20.10;;;;;;;28.06;56.49;99709.25;108156;1253;61835;-68
2023/07/18 01:52:48;;;;;;;22.90;20.10;;;;;;;28.00;56.53;99710.48;108759;1255;59240;-70
2023/07/18 01:55:15;;;;;;;24.70;21.00;;;;;;;28.05;56.50;99713.31;108097;1253;72455;-68
2023/07/18 01:57:44;;;;;;;22.90;20.30;;;;;;;28.08;56.83;99714.52;108012;1257;70412;-70
2023/07/18 02:00:19;;;;;;;25.60;20.10;;;;;;;28.05;56.48;99711.92;108014;1257;73315;-69
2023/07/18 02:02:49;;;;;;;28.00;21.80;;;;;;;28.04;56.61;99707.88;107996;1254;61900;-69
2023/07/18 02:05:18;;;;;;;23.40;18.20;;;;;;;28.24;56.21;99710.73;108218;1254;60325;-69
2023/07/18 02:07:46;;;;;;;25.50;20.40;;;;;;;28.23;56.13;99708.17;108293;1254;73723;-70
2023/07/18 02:10:15;;;;;;;24.10;21.20;;;;;;;28.17;56.32;99710.14;108292;1255;70420;-70
2023/07/18 02:12:42;;;;;;;25.70;20.50;;;;;;;28.04;56.75;99714.91;108184;1254;73522;-69
2023/07/18 02:15:09;;;;;;;24.90;21.40;;;;;;;27.82;57.51;99713.31;107916;1254;62513;-69
2023/07/18 02:17:39;;;;;;;26.70;21.60;;;;;;;27.75;57.89;99711.96;108221;1254;60323;-69
2023/07/18 02:20:11;;;;;;;29.40;23.30;;;;;;;27.80;57.79;99713.17;108381;1254;73836;-69
2023/07/18 02:22:42;;;;;;;25.40;21.40;;;;;;;27.89;57.88;99712.51;108280;1254;70220;-69
2023/07/18 02:25:09;;;;;;;25.80;20.50;;;;;;;28.05;57.81;99711.39;108153;1255;72527;-70
2023/07/18 02:27:39;;;;;;;26.90;21.40;;;;;;;28.04;57.12;99708.20;108134;1254;61698;-70
2023/07/18 02:30:11;;;;;;;24.10;20.00;;;;;;;27.64;58.38;99709.27;109377;1253;59220;-70
2023/07/18 02:32:39;;;;;;;20.70;18.30;;;;;;;27.69;58.34;99706.64;108611;1254;74211;-70
2023/07/18 02:35:08;;;;;;;23.40;18.10;;;;;;;27.89;57.42;99705.30;108203;1256;70245;-69
2023/07/18 02:37:36;;;;;;;19.00;16.90;;;;;;;27.99;56.89;99702.34;108161;1254;72478;-69
2023/07/18 02:40:08;;;;;;;22.20;17.70;;;;;;;28.00;56.35;99703.30;108096;1255;60596;-70
2023/07/18 02:42:37;;;;;;;23.10;17.60;;;;;;;28.13;55.95;99703.38;108384;1254;59084;-69
2023/07/18 02:45:06;;;;;;;22.20;16.40;;;;;;;28.46;55.06;99705.82;108303;1257;73721;-69
2023/07/18 02:47:34;;;;;;;19.10;16.80;;;;;;;28.67;54.05;99704.59;108185;1253;70152;-70
2023/07/18 02:50:01;;;;;;;16.00;14.30;;;;;;;28.79;53.83;99705.83;108138;1254;73026;-69
2023/07/18 02:52:27;;;;;;;16.60;14.50;;;;;;;28.43;54.16;99704.16;107950;1254;61758;-70
2023/07/18 02:54:54;;;;;;;20.20;15.80;;;;;;;28.47;53.81;99703.86;108238;1252;60427;-70
2023/07/18 02:57:22;;;;;;;17.20;14.00;;;;;;;28.60;53.83;99705.82;108256;1254;73689;-70
2023/07/18 02:59:49;;;;;;;19.10;14.60;;;;;;;28.85;52.72;99707.46;108379;1254;70329;-68
2023/07/18 03:02:16;;;;;;;21.70;15.60;;;;;;;28.90;52.67;99717.91;108010;1257;72659;-70
2023/07/18 03:04:47;;;;;;;23.60;16.10;;;;;;;28.93;52.69;99762.19;108119;1252;60684;-69
2023/07/18 03:07:13;;;;;;;19.80;16.90;;;;;;;28.56;53.74;99794.34;108142;1253;60538;-69
2023/07/18 03:09:41;;;;;;;19.10;15.70;;;;;;;28.54;54.11;99788.19;109361;1254;73705;-70
2023/07/18 03:12:10;;;;;;;19.40;15.80;;;;;;;28.67;53.84;99782.58;108962;1254;69804;-70
2023/07/18 03:14:39;;;;;;;18.30;16.00;;;;;;;28.91;53.17;99775.39;108163;1254;72522;-71
2023/07/18 03:17:07;;;;;;;17.70;14.60;;;;;;;28.89;53.36;99770.84;107912;1260;61899;-69
2023/07/18 03:19:34;;;;;;;20.40;16.50;;;;;;;28.93;52.99;99774.08;108074;1254;60519;-67
2023/07/18 03:22:02;;;;;;;17.60;15.00;;;;;;;28.99;53.27;99773.02;108256;1255;73825;-69
2023/07/18 03:24:38;;;;;;;16.50;14.70;;;;;;;29.22;52.65;99772.21;108184;1253;70289;-68
2023/07/18 03:27:07;;;;;;;19.10;15.20;;;;;;;29.25;52.35;99774.84;108226;1253;73106;-68
2023/07/18 03:29:34;;;;;;;16.90;13.70;;;;;;;29.48;52.05;99761.31;108265;1253;62044;-69
2023/07/18 03:32:01;;;;;;;17.10;14.90;;;;;;;29.66;51.89;99764.14;108234;1252;59143;-68
2023/07/18 03:34:28;;;;;;;21.40;16.00;;;;;;;29.75;51.65;99766.73;108158;1254;73821;-69
2023/07/18 03:36:55;;;;;;;21.60;15.80;;;;;;;29.98;51.26;99768.92;108260;1253;70269;-69
2023/07/18 03:39:22;;;;;;;21.80;16.20;;;;;;;29.80;51.23;99768.59;108024;1254;72523;-70
2023/07/18 03:41:49;;;;;;;16.30;13.90;;;;;;;29.84;51.82;99757.39;108258;1254;62075;-70
2023/07/18 03:44:16;;;;;;;22.20;15.90;;;;;;;29.80;51.67;99768.37;108122;1253;60458;-70
2023/07/18 03:46:44;;;;;;;20.60;15.20;;;;;;;29.90;51.11;99766.66;107911;1260;73662;-69
2023/07/18 03:49:12;;;;;;;17.90;14.70;;;;;;;29.87;51.52;99761.95;108083;1254;70268;-70
2023/07/18 03:51:42;;;;;;;17.50;14.60;;;;;;;30.02;50.74;99768.11;108543;1255;73197;-70
2023/07/18 03:54:09;;;;;;;17.40;13.60;;;;;;;30.18;50.82;99769.84;108000;1254;61968;-68
2023/07/18 03:56:37;;;;;;;20.50;14.00;;;;;;;30.37;50.35;99763.69;108204;1254;59129;-70
2023/07/18 03:59:04;;;;;;;16.20;13.90;;;;;;;30.38;49.82;99767.98;108219;1254;73877;-70
2023/07/18 04:01:31;;;;;;;24.20;15.20;;;;;;;30.43;50.00;99773.09;108257;1254;70770;-71
2023/07/18 04:03:57;;;;;;;14.90;13.30;;;;;;;30.45;50.15;99770.85;108119;1254;71273;-69
2023/07/18 04:06:24;;;;;;;18.40;14.90;;;;;;;30.45;49.92;99771.77;108217;1252;62022;-70
2023/07/18 04:08:53;;;;;;;15.20;12.30;;;;;;;30.52;49.48;99776.64;108303;1254;60287;-70
2023/07/18 04:11:20;;;;;;;12.90;11.60;;;;;;;30.54;48.82;99768.60;108197;1252;73592;-70
2023/07/18 04:13:49;;;;;;;16.70;11.90;;;;;;;30.49;48.86;99771.22;108227;1254;70204;-69
2023/07/18 04:16:16;;;;;;;13.30;10.90;;;;;;;30.54;48.66;99765.53;108183;1254;72318;-69
2023/07/18 04:18:44;;;;;;;18.90;11.30;;;;;;;30.55;48.23;99756.35;108210;1252;62860;-69
2023/07/18 04:21:11;;;;;;;15.00;10.20;;;;;;;30.57;48.17;99749.30;108218;1252;60369;-70
2023/07/18 04:23:39;;;;;;;12.30;10.20;;;;;;;30.54;47.84;99752.45;108259;1254;73543;-69
2023/07/18 04:26:09;;;;;;;12.60;10.00;;;;;;;30.54;48.14;99753.20;109362;1254;70369;-70
2023/07/18 04:28:38;;;;;;;15.70;10.70;;;;;;;30.65;47.80;99758.48;108179;1254;71895;-69
2023/07/18 04:31:05;;;;;;;13.60;10.30;;;;;;;30.88;47.41;99755.17;108074;1254;62080;-70
2023/07/18 04:33:34;;;;;;;14.20;10.10;;;;;;;30.83;47.62;99759.80;108174;1252;60431;-71
2023/07/18 04:36:04;;;;;;;12.00;9.80;;;;;;;30.91;47.33;99755.66;108154;1254;74114;-71
2023/07/18 04:38:32;;;;;;;12.30;9.70;;;;;;;30.98;47.25;99753.70;108203;1254;70529;-69
2023/07/18 04:40:59;;;;;;;12.80;9.30;;;;;;;31.06;47.00;99759.11;108169;1253;72667;-69
2023/07/18 04:43:27;;;;;;;12.10;9.10;;;;;;;31.04;46.71;99761.40;107997;1254;61964;-70
2023/07/18 04:45:53;;;;;;;9.70;7.50;;;;;;;31.07;46.69;99759.84;108237;1252;59227;-70
2023/07/18 04:48:20;;;;;;;15.30;8.50;;;;;;;31.01;46.68;99755.11;108191;1254;73842;-70
2023/07/18 04:51:00;;;;;;;12.60;7.90;;;;;;;31.01;46.50;99757.33;108278;1255;69085;-69
2023/07/18 04:53:27;;;;;;;10.00;8.30;;;;;;;31.12;46.31;99754.16;108212;1253;72541;-70
2023/07/18 04:55:57;;;;;;;9.80;6.80;;;;;;;31.10;45.90;99748.89;108189;1254;60498;-69
2023/07/18 04:58:25;;;;;;;8.30;6.50;;;;;;;31.14;45.61;99750.63;108246;1256;60501;-70
2023/07/18 05:00:51;;;;;;;9.70;6.60;;;;;;;31.04;45.77;99750.98;108183;1254;73872;-69
2023/07/18 05:03:18;;;;;;;9.20;6.20;;;;;;;30.75;46.14;99747.10;108171;1254;70170;-70
2023/07/18 05:05:45;;;;;;;9.70;6.60;;;;;;;30.62;46.25;99746.79;108171;1254;73044;-70
2023/07/18 05:08:12;;;;;;;7.40;6.20;;;;;;;30.78;45.63;99741.05;108637;1253;61765;-70
2023/07/18 05:10:41;;;;;;;8.10;6.10;;;;;;;30.72;45.79;99737.64;108330;1254;60357;-70
2023/07/18 05:13:08;;;;;;;7.30;6.30;;;;;;;30.73;45.74;99739.56;108587;1253;73883;-69
2023/07/18 05:15:39;;;;;;;7.10;5.70;;;;;;;30.64;45.67;99745.05;108126;1254;70321;-69
2023/07/18 05:18:09;;;;;;;7.30;5.50;;;;;;;30.68;45.60;99751.15;108126;1254;72546;-70
2023/07/18 05:20:37;;;;;;;7.30;5.20;;;;;;;30.77;45.47;99766.44;108150;1253;62428;-72
2023/07/18 05:23:06;;;;;;;6.30;5.20;;;;;;;30.94;45.05;99771.25;108118;1254;61335;-69
2023/07/18 05:25:34;;;;;;;7.60;6.10;;;;;;;30.84;45.34;99768.42;108176;1256;74032;-70
2023/07/18 05:28:06;;;;;;;8.40;5.80;;;;;;;30.92;45.01;99769.68;108254;1254;70217;-70
2023/07/18 05:30:33;;;;;;;5.70;4.80;;;;;;;31.01;44.38;99768.61;108056;1254;72560;-71
2023/07/18 05:33:00;;;;;;;9.40;5.00;;;;;;;31.06;44.11;99768.48;107979;1253;62329;-69
2023/07/18 05:35:28;;;;;;;6.10;5.00;;;;;;;30.57;44.59;99761.50;108326;1254;60533;-70
2023/07/18 05:37:56;;;;;;;6.90;5.30;;;;;;;30.33;45.04;99753.14;108181;1254;72543;-69
2023/07/18 05:40:24;;;;;;;7.70;5.10;;;;;;;30.45;45.11;99751.29;108274;1254;70478;-71
2023/07/18 05:42:52;;;;;;;6.10;4.50;;;;;;;30.65;44.71;99749.12;108290;1254;72575;-70
2023/07/18 05:45:19;;;;;;;7.00;4.60;;;;;;;30.70;44.69;99743.67;108098;1252;60569;-69
2023/07/18 05:47:48;;;;;;;5.90;4.40;;;;;;;30.68;44.72;99739.44;108652;1253;60084;-70
2023/07/18 05:50:15;;;;;;;6.40;4.70;;;;;;;30.65;44.79;99737.27;109336;1252;74346;-70
2023/07/18 05:52:42;;;;;;;6.00;4.90;;;;;;;30.99;44.32;99733.17;108703;1254;69599;-72
2023/07/18 05:55:10;;;;;;;8.70;4.70;;;;;;;31.10;43.97;99740.19;108268;1254;72503;-70
2023/07/18 05:57:38;;;;;;;5.50;4.90;;;;;;;31.07;44.10;99741.00;108076;1252;62194;-72
2023/07/18 06:00:06;;;;;;;7.40;4.50;;;;;;;31.08;44.05;99739.05;108140;1254;60453;-70
2023/07/18 06:02:38;;;;;;;8.80;4.90;;;;;;;31.07;44.00;99742.63;108222;1254;73792;-71
2023/07/18 06:05:07;;;;;;;9.10;4.80;;;;;;;31.13;43.78;99745.36;108198;1254;70154;-70
2023/07/18 06:07:34;;;;;;;7.10;4.60;;;;;;;31.26;43.65;99736.64;108242;1254;72605;-70
2023/07/18 06:10:07;;;;;;;4.70;4.20;;;;;;;31.39;43.21;99731.61;108239;1253;61967;-69
2023/07/18 06:12:35;;;;;;;10.60;5.50;;;;;;;31.24;43.33;99732.10;108226;1254;60222;-70
2023/07/18 06:15:05;;;;;;;5.50;4.60;;;;;;;31.13;43.72;99738.33;108140;1254;74015;-69
2023/07/18 06:17:35;;;;;;;7.20;4.80;;;;;;;31.21;43.71;99742.59;108563;1254;70220;-70
2023/07/18 06:20:08;;;;;;;7.80;4.90;;;;;;;31.45;43.24;99743.85;108287;1253;72509;-70
2023/07/18 06:22:36;;;;;;;6.50;4.20;;;;;;;31.71;42.63;99736.06;108154;1254;61777;-71
2023/07/18 06:25:03;;;;;;;5.80;4.90;;;;;;;32.00;42.14;99726.96;108129;1254;60078;-70
2023/07/18 06:27:31;;;;;;;8.00;4.40;;;;;;;31.99;42.11;99721.68;108127;1256;71991;-69
2023/07/18 06:29:58;;;;;;;6.10;4.10;;;;;;;32.26;41.70;99718.29;109382;1253;70377;-72
2023/07/18 06:32:27;;;;;;;6.30;4.10;;;;;;;32.63;41.16;99713.89;108850;1253;72707;-69
2023/07/18 06:34:55;;;;;;;6.00;4.60;;;;;;;32.79;40.61;99706.23;108191;1253;60329;-69
2023/07/18 06:37:27;;;;;;;5.30;4.20;;;;;;;32.88;40.45;99710.80;108206;1253;60343;-70
2023/07/18 06:39:53;;;;;;;6.80;4.50;;;;;;;33.08;39.82;99713.70;108227;1254;73754;-69
2023/07/18 06:42:22;;;;;;;6.00;4.30;;;;;;;33.30;39.67;99704.63;108276;1254;61346;-70
2023/07/18 06:44:49;;;;;;;6.60;4.50;;;;;;;33.62;39.40;99706.85;108122;1254;72393;-71
2023/07/18 06:47:18;;;;;;;6.50;4.40;;;;;;;34.00;38.53;99704.38;108118;1256;60556;-72
2023/07/18 06:49:45;;;;;;;5.00;4.10;;;;;;;34.54;37.68;99709.10;108164;1253;60288;-70
2023/07/18 06:52:11;;;;;;;5.40;4.20;;;;;;;34.48;37.37;99708.92;108191;1254;60578;-70
2023/07/18 06:54:40;;;;;;;7.00;3.70;;;;;;;34.63;37.18;99715.95;108220;1254;61391;-71
2023/07/18 06:57:06;;;;;;;6.30;4.70;;;;;;;34.91;36.50;99714.14;108208;1253;64066;-70
2023/07/18 06:59:36;;;;;;;4.70;3.80;;;;;;;35.21;36.01;99710.81;108252;1253;59172;-69
2023/07/18 07:02:05;;;;;;;6.60;4.20;;;;;;;35.33;35.38;99707.98;108187;1254;60305;-70
2023/07/18 07:04:32;;;;;;;4.10;3.50;;;;;;;35.56;35.12;99702.73;109176;1252;65116;-71
2023/07/18 07:06:59;;;;;;;6.00;3.80;;;;;;;35.76;34.64;99702.81;109132;1252;60412;-69
2023/07/18 07:09:26;;;;;;;6.50;3.90;;;;;;;35.90;34.27;99702.76;108071;1254;63844;-70
2023/07/18 07:11:53;;;;;;;4.20;3.30;;;;;;;36.14;34.00;99704.77;108165;1254;61782;-69
2023/07/18 07:14:20;;;;;;;6.90;3.80;;;;;;;36.62;33.50;99704.61;108108;1254;60423;-69
2023/07/18 07:16:47;;;;;;;4.30;3.70;;;;;;;36.78;33.06;99703.99;108137;1254;65528;-71
2023/07/18 07:19:13;;;;;;;4.60;3.40;;;;;;;37.04;32.45;99705.16;108303;1253;59032;-71
2023/07/18 07:21:40;;;;;;;3.90;3.40;;;;;;;37.44;31.96;99708.30;108199;1254;64022;-70
2023/07/18 07:24:08;;;;;;;5.30;3.20;;;;;;;37.85;30.78;99706.77;108178;1252;60230;-71
2023/07/18 07:26:38;;;;;;;4.90;3.40;;;;;;;38.04;30.20;99705.51;108148;1253;60402;-70
2023/07/18 07:29:06;;;;;;;4.30;3.00;;;;;;;38.11;29.95;99707.94;107933;1254;65005;-69
2023/07/18 07:44:42;;;;;;;4.90;3.50;;;;;;;36.50;31.97;99720.70;105687;1285;604598;-59
2023/07/18 07:47:09;;;;;;;5.50;4.30;;;;;;;37.66;30.88;99718.33;108066;1264;225721;-70
2023/07/18 07:49:37;;;;;;;7.20;3.90;;;;;;;37.29;31.59;99719.86;107247;1264;59288;-71
2023/07/18 07:52:05;;;;;;;4.50;3.90;;;;;;;37.27;31.84;99727.67;107309;1264;71046;-71
2023/07/18 07:54:32;;;;;;;6.80;4.20;;;;;;;37.14;31.99;99721.85;107288;1264;61308;-71
2023/07/18 07:57:03;;;;;;;7.20;4.50;;;;;;;36.99;31.94;99715.40;107217;1269;64261;-70
2023/07/18 07:59:30;;;;;;;8.80;4.80;;;;;;;36.87;32.11;99715.38;107303;1263;59160;-70
2023/07/18 08:01:58;;;;;;;4.80;4.10;;;;;;;36.72;32.42;99720.71;107303;1263;60310;-70
2023/07/18 08:04:25;;;;;;;8.40;4.30;;;;;;;36.51;32.62;99717.98;107276;1266;63937;-71
2023/07/18 08:06:55;;;;;;;9.00;4.20;;;;;;;36.32;32.89;99714.15;107353;1263;60421;-71
2023/07/18 08:09:23;;;;;;;5.50;4.00;;;;;;;36.52;32.77;99711.64;107563;1269;64326;-70
2023/07/18 08:11:51;;;;;;;6.30;4.10;;;;;;;36.43;32.69;99711.65;107359;1269;59480;-71
2023/07/18 08:14:18;;;;;;;4.80;4.30;;;;;;;36.46;33.06;99707.55;107327;1263;59744;-70
2023/07/18 08:16:46;;;;;;;4.50;3.80;;;;;;;36.45;33.13;99706.86;107546;1263;63058;-70
2023/07/18 08:19:13;;;;;;;6.80;3.90;;;;;;;36.27;33.05;99703.67;107614;1263;61538;-69
2023/07/18 08:21:41;;;;;;;6.60;3.70;;;;;;;35.89;32.88;99699.93;107273;1266;63783;-71
2023/07/18 08:24:08;;;;;;;16.70;4.50;;;;;;;35.60;33.34;99705.94;108253;1260;59518;-70
2023/07/18 08:26:36;;;;;;;5.90;3.40;;;;;;;35.51;33.11;99712.27;108764;1260;57277;-71
2023/07/18 08:29:04;;;;;;;5.50;3.60;;;;;;;35.43;33.34;99712.96;107738;1260;64151;-70
2023/07/18 08:31:31;;;;;;;4.80;3.30;;;;;;;35.37;33.36;99716.02;108297;1260;60237;-70
2023/07/18 08:33:58;;;;;;;5.20;3.50;;;;;;;35.15;33.54;99720.01;107589;1264;63854;-71
2023/07/18 08:36:26;;;;;;;4.80;3.20;;;;;;;35.12;33.49;99725.07;107657;1260;59627;-71
2023/07/18 08:38:54;;;;;;;7.60;3.30;;;;;;;34.94;33.49;99722.74;107615;1260;59968;-70
2023/07/18 08:41:21;;;;;;;6.50;3.60;;;;;;;34.68;33.98;99728.70;108419;1260;62926;-71
2023/07/18 08:43:49;;;;;;;5.10;3.70;;;;;;;34.39;34.58;99728.69;107532;1260;60311;-72
2023/07/18 08:46:17;;;;;;;5.50;3.80;;;;;;;34.08;35.44;99727.04;107758;1264;63145;-70
2023/07/18 08:48:45;;;;;;;4.70;3.80;;;;;;;33.79;35.89;99734.93;107417;1261;59618;-70
2023/07/18 08:51:12;;;;;;;6.30;3.40;;;;;;;33.58;36.18;99728.20;107380;1260;59474;-69
2023/07/18 08:53:43;;;;;;;7.10;3.90;;;;;;;33.35;36.72;99728.50;107413;1260;62880;-70
2023/07/18 08:56:10;;;;;;;6.70;4.00;;;;;;;33.39;36.95;99730.33;107489;1260;61354;-70
2023/07/18 08:58:38;;;;;;;6.40;4.60;;;;;;;33.12;37.24;99736.55;108024;1254;62415;-69
2023/07/18 09:01:06;;;;;;;4.80;3.80;;;;;;;32.99;37.72;99734.56;108000;1258;59218;-71
2023/07/18 09:03:35;;;;;;;7.40;4.30;;;;;;;33.02;39.25;99734.90;107906;1254;59460;-70
2023/07/18 09:06:02;;;;;;;4.70;3.90;;;;;;;32.99;39.99;99736.88;108662;1254;73811;-71
2023/07/18 09:08:43;;;;;;;5.60;4.00;;;;;;;32.86;40.23;99743.21;108782;1254;60750;-72
2023/07/18 09:11:12;;;;;;;8.60;4.80;;;;;;;32.69;40.79;99745.20;109035;1254;63756;-70
2023/07/18 09:13:41;;;;;;;6.10;4.40;;;;;;;32.56;40.86;99743.07;108122;1260;59688;-70
2023/07/18 09:16:21;;;;;;;8.40;4.40;;;;;;;32.58;40.73;99738.33;108128;1257;59783;-71
2023/07/18 09:18:53;;;;;;;7.80;4.80;;;;;;;32.43;41.07;99738.35;107977;1254;64151;-70
2023/07/18 09:21:21;;;;;;;8.80;4.50;;;;;;;32.51;40.88;99739.99;107909;1257;70469;-69
2023/07/18 09:23:50;;;;;;;10.30;4.40;;;;;;;32.62;41.21;99741.64;108168;1255;72489;-69
2023/07/18 09:26:19;;;;;;;9.10;4.80;;;;;;;32.87;41.04;99740.25;108244;1254;61701;-70
2023/07/18 09:28:47;;;;;;;6.20;4.40;;;;;;;33.23;40.58;99731.85;108013;1254;59978;-70
2023/07/18 09:31:19;;;;;;;6.80;4.40;;;;;;;33.49;39.22;99728.73;107907;1254;64166;-70
2023/07/18 09:33:48;;;;;;;7.90;4.40;;;;;;;34.00;38.70;99724.25;107987;1254;61980;-70
2023/07/18 09:36:24;;;;;;;5.20;3.50;;;;;;;34.64;37.81;99721.25;107973;1254;63818;-70
2023/07/18 09:38:52;;;;;;;5.20;3.70;;;;;;;34.99;36.25;99715.38;107940;1254;59142;-70
2023/07/18 09:41:20;;;;;;;7.70;4.20;;;;;;;35.52;35.15;99710.66;108028;1254;59352;-70
2023/07/18 09:43:49;;;;;;;5.60;4.10;;;;;;;35.91;34.41;99706.81;108439;1254;64485;-70
2023/07/18 09:46:16;;;;;;;5.10;3.70;;;;;;;36.12;34.48;99709.27;108691;1254;61414;-69
2023/07/18 09:48:45;;;;;;;6.60;3.90;;;;;;;36.41;33.89;99713.12;108635;1254;63741;-71
2023/07/18 09:51:20;;;;;;;3.90;3.50;;;;;;;37.03;33.16;99716.59;109085;1254;57400;-70
2023/07/18 09:53:48;;;;;;;3.70;3.30;;;;;;;37.50;32.10;99713.38;108459;1254;59861;-70
2023/07/18 09:56:17;;;;;;;5.20;3.80;;;;;;;38.02;31.52;99714.18;108094;1254;62908;-70
2023/07/18 09:58:46;;;;;;;4.70;3.60;;;;;;;38.53;30.34;99711.66;108191;1254;61499;-72
2023/07/18 10:01:19;;;;;;;4.30;3.60;;;;;;;38.43;30.20;99710.63;107911;1254;63760;-70
2023/07/18 10:03:49;;;;;;;5.60;3.40;;;;;;;38.60;30.02;99712.77;108169;1254;59542;-70
2023/07/18 10:06:17;;;;;;;5.50;3.80;;;;;;;39.11;29.48;99712.70;108012;1254;59520;-70
2023/07/18 10:08:45;;;;;;;5.40;3.50;;;;;;;39.55;28.97;99714.56;107989;1254;64109;-71
2023/07/18 10:11:14;;;;;;;4.20;3.60;;;;;;;39.54;28.86;99715.61;107999;1253;61666;-70
2023/07/18 10:14:02;;;;;;;5.00;3.80;;;;;;;39.53;28.97;99717.90;107913;1257;62701;-71
2023/07/18 10:16:32;;;;;;;5.00;3.80;;;;;;;39.67;28.92;99718.28;107954;1254;59509;-70
2023/07/18 10:19:05;;;;;;;4.10;3.40;;;;;;;39.72;28.83;99713.21;107923;1258;59516;-70
2023/07/18 10:21:34;;;;;;;3.50;3.10;;;;;;;40.05;28.41;99704.90;107764;1254;64179;-70
2023/07/18 10:24:21;;;;;;;4.30;3.80;;;;;;;40.07;28.04;99705.69;108525;1254;61888;-69
2023/07/18 10:26:49;;;;;;;6.50;3.60;;;;;;;40.36;27.71;99701.99;108936;1256;63886;-69
2023/07/18 10:29:17;;;;;;;4.00;3.30;;;;;;;40.62;27.36;99702.09;107785;1254;58759;-70
2023/07/18 10:31:44;;;;;;;4.20;3.60;;;;;;;40.89;27.14;99699.48;107881;1254;59503;-71
2023/07/18 10:34:16;;;;;;;4.70;3.40;;;;;;;40.97;27.07;99701.61;107986;1259;63532;-71
2023/07/18 10:37:00;;;;;;;4.30;3.30;;;;;;;40.59;27.45;99701.25;108315;1254;61392;-72
2023/07/18 10:39:54;;;;;;;3.90;3.50;;;;;;;40.98;27.02;99698.36;108007;1255;63695;-71
2023/07/18 10:42:26;;;;;;;4.90;3.30;;;;;;;41.16;26.71;99708.69;108008;1253;59662;-70
2023/07/18 10:44:58;;;;;;;6.40;3.70;;;;;;;40.96;26.79;99709.99;108016;1254;59502;-70
2023/07/18 10:47:26;;;;;;;6.20;3.20;;;;;;;40.74;27.07;99706.39;108038;1254;62851;-69
2023/07/18 10:49:54;;;;;;;4.60;3.50;;;;;;;40.81;27.33;99706.93;108282;1259;61364;-70
2023/07/18 10:52:22;;;;;;;5.30;3.70;;;;;;;40.72;27.08;99706.09;108457;1258;64251;-70
2023/07/18 10:54:56;;;;;;;4.60;3.60;;;;;;;40.48;27.39;99705.14;107994;1254;59487;-72
2023/07/18 10:57:30;;;;;;;6.00;3.30;;;;;;;40.53;27.47;99708.60;107951;1257;59324;-71
2023/07/18 10:59:59;;;;;;;5.90;3.70;;;;;;;40.36;27.34;99703.44;108273;1254;64837;-71
2023/07/18 11:02:28;;;;;;;6.10;3.70;;;;;;;40.20;27.59;99701.90;107981;1254;61350;-70
2023/07/18 11:04:55;;;;;;;5.10;3.30;;;;;;;40.12;27.52;99704.15;109160;1254;62453;-70
2023/07/18 11:07:33;;;;;;;5.40;4.10;;;;;;;40.00;28.00;99699.25;108708;1254;59820;-74
2023/07/18 11:10:01;;;;;;;4.80;3.60;;;;;;;39.79;28.39;99697.69;109204;1254;57352;-72
2023/07/18 11:12:28;;;;;;;4.30;3.90;;;;;;;39.46;28.67;99699.30;108870;1254;62909;-70
2023/07/18 11:14:56;;;;;;;4.70;3.90;;;;;;;39.20;29.22;99698.23;108408;1254;61345;-70
2023/07/18 11:17:26;;;;;;;6.40;3.80;;;;;;;39.09;29.39;99699.97;107996;1254;63455;-70
2023/07/18 11:20:00;;;;;;;5.20;3.80;;;;;;;39.20;29.13;99697.36;107864;1256;59592;-71
2023/07/18 11:22:28;;;;;;;5.60;4.10;;;;;;;39.37;28.90;99693.12;107941;1254;59364;-70
2023/07/18 11:24:56;;;;;;;5.20;3.50;;;;;;;39.53;28.71;99688.08;107863;1254;64210;-70
2023/07/18 11:27:24;;;;;;;5.60;4.20;;;;;;;39.82;28.28;99682.94;108183;1254;60080;-72
2023/07/18 11:29:59;;;;;;;4.90;4.10;;;;;;;40.32;28.12;99680.89;108005;1254;62521;-71
2023/07/18 11:32:40;;;;;;;4.60;3.80;;;;;;;40.73;27.07;99678.72;108027;1257;59578;-70
2023/07/18 11:35:17;;;;;;;7.00;3.90;;;;;;;40.89;26.83;99677.34;108224;1254;59486;-70
2023/07/18 11:37:46;;;;;;;4.70;3.90;;;;;;;41.01;26.80;99676.95;108175;1254;62979;-70
2023/07/18 11:40:19;;;;;;;6.00;3.90;;;;;;;41.09;26.50;99676.89;108148;1254;60223;-70